Time;durP1;ratioP1;P1;durP2;ratioP2;P2;SDS_P1;SDS_P2;PMS_P1;PMS_P2;Temp;Humidity;BMP_temperature;BMP_pressure;BME280_temperature;BME280_humidity;BME280_pressure;Samples;Min_cycle;Max_cycle;Signal;HPM_P1;HPM_P2
2021/05/09 00:02:05;;;;;;;;;;;;;;;;;;;;;
2021/05/09 00:04:42;;;;;;;2.13;1.40;;;11.10;74.30;;;;;;5072573;28;20051;-91
2021/05/09 00:07:30;;;;;;;1.40;0.98;;;10.90;75.60;;;;;;5057079;28;20025;-91
2021/05/09 00:10:07;;;;;;;1.83;1.38;;;10.90;75.70;;;;;;5058435;28;20029;-91
2021/05/09 00:12:56;;;;;;;3.10;1.27;;;10.80;75.50;;;;;;5061605;28;20029;-89
2021/05/09 00:15:29;;;;;;;2.03;1.20;;;10.80;75.20;;;;;;5067181;28;20025;-90
2021/05/09 00:18:03;;;;;;;3.83;1.33;;;10.90;74.80;;;;;;5058851;28;20028;-93
2021/05/09 00:20:35;;;;;;;2.43;1.10;;;10.90;74.80;;;;;;5056689;28;20051;-92
2021/05/09 00:23:13;;;;;;;1.65;1.23;;;10.90;74.60;;;;;;5058035;28;20303;-91
2021/05/09 00:25:42;;;;;;;1.40;1.25;;;10.90;74.40;;;;;;5054999;28;20025;-92
2021/05/09 00:28:22;;;;;;;6.18;1.02;;;10.80;74.70;;;;;;5055770;28;20024;-91
2021/05/09 00:31:02;;;;;;;4.10;1.20;;;10.80;74.50;;;;;;5059195;28;20041;-90
2021/05/09 00:33:59;;;;;;;5.47;1.20;;;10.80;74.30;;;;;;5059172;28;20066;-91
2021/05/09 00:36:38;;;;;;;4.13;1.48;;;10.70;74.30;;;;;;5058222;28;20033;-92
2021/05/09 00:39:12;;;;;;;3.28;1.35;;;10.70;73.70;;;;;;5058202;28;20032;-92
2021/05/09 00:41:42;;;;;;;1.95;1.60;;;10.60;73.40;;;;;;5058058;28;20021;-91
2021/05/09 00:44:15;;;;;;;1.58;1.20;;;10.70;73.30;;;;;;5058079;28;20012;-91
2021/05/09 00:46:49;;;;;;;1.63;1.20;;;10.60;72.90;;;;;;5054157;28;20021;-91
2021/05/09 00:49:25;;;;;;;3.45;1.27;;;10.70;72.60;;;;;;5054865;28;20021;-92
2021/05/09 00:52:04;;;;;;;3.40;1.27;;;10.90;72.30;;;;;;5056906;28;20079;-91
2021/05/09 00:55:13;;;;;;;1.17;1.02;;;10.90;71.70;;;;;;5061427;28;20017;-91
2021/05/09 00:58:00;;;;;;;;;;;;;;;;;;;;;
2021/05/09 01:00:50;;;;;;;2.38;1.20;;;10.90;72.60;;;;;;5070625;28;20047;-91
2021/05/09 01:03:44;;;;;;;1.42;1.10;;;10.90;71.80;;;;;;5057321;28;20027;-92
2021/05/09 01:06:22;;;;;;;1.70;1.20;;;11.00;71.30;;;;;;5054590;28;20119;-92
2021/05/09 01:08:56;;;;;;;1.58;0.98;;;10.90;71.00;;;;;;5053262;28;20027;-92
2021/05/09 01:11:36;;;;;;;3.15;1.30;;;10.80;70.90;;;;;;5055035;28;20043;-92
2021/05/09 01:14:15;;;;;;;1.67;1.20;;;10.90;71.30;;;;;;5057834;28;20028;-91
2021/05/09 01:16:45;;;;;;;1.95;1.00;;;11.00;71.60;;;;;;5055963;28;20033;-91
2021/05/09 01:19:29;;;;;;;1.80;1.40;;;10.90;71.10;;;;;;5053926;28;20049;-91
2021/05/09 01:22:01;;;;;;;3.13;1.30;;;10.80;71.70;;;;;;5050857;28;20033;-92
2021/05/09 01:24:48;;;;;;;1.40;1.30;;;10.60;73.10;;;;;;5056684;28;20032;-92
2021/05/09 01:27:52;;;;;;;1.55;1.25;;;10.60;73.10;;;;;;5074032;28;20035;-91
2021/05/09 01:30:36;;;;;;;1.85;1.33;;;10.60;72.00;;;;;;5079449;28;20024;-92
2021/05/09 01:33:08;;;;;;;1.20;0.82;;;10.70;71.70;;;;;;5057223;28;20033;-90
2021/05/09 01:36:11;;;;;;;2.08;1.10;;;10.80;71.10;;;;;;5055767;28;20031;-92
2021/05/09 01:38:39;;;;;;;2.92;1.30;;;10.90;70.20;;;;;;5052690;28;20029;-92
2021/05/09 01:41:09;;;;;;;5.53;1.30;;;10.70;70.20;;;;;;5054477;28;20497;-91
2021/05/09 01:43:38;;;;;;;2.10;1.13;;;10.70;69.70;;;;;;5054777;28;20028;-91
2021/05/09 01:46:18;;;;;;;1.15;1.00;;;10.80;68.60;;;;;;5057275;28;20017;-92
2021/05/09 01:48:44;;;;;;;0.95;0.82;;;11.00;67.70;;;;;;5052424;28;20031;-91
2021/05/09 01:54:32;;;;;;;0.90;0.90;;;10.80;69.50;;;;;;5074824;28;20072;-92
2021/05/09 01:57:07;;;;;;;1.50;1.17;;;11.00;68.40;;;;;;5071760;28;20032;-91
2021/05/09 01:59:35;;;;;;;2.40;1.35;;;11.00;68.40;;;;;;5052876;28;20039;-91
2021/05/09 02:02:36;;;;;;;4.03;1.20;;;10.90;68.80;;;;;;5056515;28;20557;-92
2021/05/09 02:05:11;;;;;;;3.90;1.00;;;10.80;69.00;;;;;;5061035;23;20036;-71
2021/05/09 02:07:37;;;;;;;2.83;0.98;;;10.70;69.40;;;;;;5073172;28;20025;-70
2021/05/09 02:10:08;;;;;;;0.80;0.77;;;10.80;68.90;;;;;;5073192;28;20032;-71
2021/05/09 02:12:34;;;;;;;1.17;1.08;;;10.90;67.70;;;;;;5071846;28;20532;-71
2021/05/09 02:15:00;;;;;;;1.80;1.00;;;11.00;67.40;;;;;;5073268;28;20491;-71
2021/05/09 02:17:26;;;;;;;3.30;1.23;;;11.10;67.00;;;;;;5073247;28;20029;-71
2021/05/09 02:19:52;;;;;;;0.85;0.77;;;11.20;67.40;;;;;;5073037;28;20066;-71
2021/05/09 02:22:17;;;;;;;2.45;1.27;;;11.00;67.70;;;;;;5073051;28;20017;-71
2021/05/09 02:24:44;;;;;;;3.20;1.20;;;11.00;68.60;;;;;;5072164;28;20051;-71
2021/05/09 02:27:10;;;;;;;2.75;1.17;;;11.00;68.60;;;;;;5072814;28;20103;-71
2021/05/09 02:29:37;;;;;;;0.90;0.90;;;10.90;68.80;;;;;;5071729;28;20060;-71
2021/05/09 02:32:03;;;;;;;1.58;1.10;;;10.90;68.60;;;;;;5071689;28;20036;-71
2021/05/09 02:34:31;;;;;;;2.72;1.17;;;10.90;68.60;;;;;;5054772;28;20024;-71
2021/05/09 02:36:56;;;;;;;1.20;1.08;;;10.90;68.40;;;;;;5071496;28;20039;-71
2021/05/09 02:39:22;;;;;;;0.70;0.70;;;10.90;68.40;;;;;;5072660;28;20020;-71
2021/05/09 02:41:48;;;;;;;2.72;1.25;;;10.90;69.20;;;;;;5072839;28;20055;-71
2021/05/09 02:44:14;;;;;;;1.00;0.88;;;10.90;68.60;;;;;;5054730;28;20032;-71
2021/05/09 02:46:39;;;;;;;1.38;1.10;;;11.00;67.40;;;;;;5072476;28;20575;-71
2021/05/09 02:49:05;;;;;;;2.25;0.93;;;10.90;67.40;;;;;;5072439;28;20048;-71
2021/05/09 02:51:31;;;;;;;3.00;1.23;;;10.90;68.40;;;;;;5072696;28;20578;-71
2021/05/09 02:53:56;;;;;;;2.47;1.13;;;10.90;68.40;;;;;;5054614;28;20028;-71
2021/05/09 02:56:22;;;;;;;1.88;0.82;;;10.90;69.00;;;;;;5072434;28;20078;-71
2021/05/09 02:58:48;;;;;;;2.10;1.10;;;11.00;67.10;;;;;;5072475;28;20029;-71
2021/05/09 03:01:14;;;;;;;4.38;0.95;;;11.10;66.70;;;;;;5072500;28;20028;-71
2021/05/09 03:03:39;;;;;;;1.98;1.05;;;11.00;67.50;;;;;;5070953;28;20024;-71
2021/05/09 03:06:05;;;;;;;6.00;1.65;;;11.00;68.20;;;;;;5072239;28;20086;-71
2021/05/09 03:08:33;;;;;;;3.45;1.40;;;10.90;68.90;;;;;;5070916;28;20077;-71
2021/05/09 03:10:59;;;;;;;3.13;0.80;;;11.00;68.70;;;;;;5072265;28;20464;-71
2021/05/09 03:13:25;;;;;;;1.10;1.00;;;11.00;68.00;;;;;;5070816;28;20032;-71
2021/05/09 03:15:51;;;;;;;1.63;1.20;;;11.00;67.80;;;;;;5070769;28;20032;-71
2021/05/09 03:18:16;;;;;;;2.78;0.80;;;11.00;68.20;;;;;;5072237;28;20107;-71
2021/05/09 03:20:42;;;;;;;1.15;1.05;;;11.00;67.90;;;;;;5070934;28;20070;-71
2021/05/09 03:23:08;;;;;;;2.28;0.70;;;11.10;68.70;;;;;;5072111;28;20021;-71
2021/05/09 03:25:34;;;;;;;1.23;0.90;;;11.00;68.70;;;;;;5099382;22;20391;-75
2021/05/09 03:28:00;;;;;;;1.80;1.15;;;10.90;68.60;;;;;;5092327;28;20085;-75
2021/05/09 03:30:26;;;;;;;1.67;1.10;;;10.90;68.30;;;;;;5074091;28;20085;-75
2021/05/09 03:32:54;;;;;;;3.35;0.80;;;10.80;68.70;;;;;;5090844;28;20399;-75
2021/05/09 03:35:20;;;;;;;0.98;0.80;;;10.90;68.30;;;;;;5090713;28;20016;-75
2021/05/09 03:37:46;;;;;;;1.15;1.08;;;11.00;68.60;;;;;;5091949;28;20074;-75
2021/05/09 03:40:12;;;;;;;4.93;1.20;;;11.00;68.60;;;;;;5073943;28;20060;-76
2021/05/09 03:42:38;;;;;;;1.08;0.90;;;11.00;69.30;;;;;;5092139;28;20309;-76
2021/05/09 03:45:05;;;;;;;1.20;0.90;;;11.00;68.70;;;;;;5090856;28;20074;-75
2021/05/09 03:47:31;;;;;;;3.05;1.65;;;10.90;68.60;;;;;;5092006;28;20394;-75
2021/05/09 03:49:57;;;;;;;3.67;0.90;;;10.80;68.70;;;;;;5090780;28;20024;-75
2021/05/09 03:52:23;;;;;;;1.25;0.80;;;10.80;69.10;;;;;;5073830;28;20024;-75
2021/05/09 03:54:49;;;;;;;0.93;0.90;;;10.90;69.00;;;;;;5091960;28;20050;-75
2021/05/09 03:57:15;;;;;;;1.98;0.98;;;11.00;68.20;;;;;;5091859;28;20071;-76
2021/05/09 03:59:41;;;;;;;1.48;0.82;;;11.00;67.80;;;;;;5090655;28;20042;-75
2021/05/09 04:02:07;;;;;;;1.13;1.00;;;11.00;67.40;;;;;;5091899;28;20024;-75
2021/05/09 04:04:33;;;;;;;0.77;0.77;;;11.00;67.80;;;;;;5091903;28;20062;-75
2021/05/09 04:06:59;;;;;;;1.10;0.90;;;11.10;67.90;;;;;;5092004;28;20067;-75
2021/05/09 04:09:25;;;;;;;1.85;0.93;;;11.10;68.30;;;;;;5090724;28;20459;-75
2021/05/09 04:11:50;;;;;;;2.40;1.05;;;11.00;68.50;;;;;;5090413;28;20089;-76
2021/05/09 04:14:16;;;;;;;1.25;0.77;;;11.00;68.20;;;;;;5073702;28;20026;-75
2021/05/09 04:16:42;;;;;;;1.65;1.55;;;11.10;68.10;;;;;;5090425;28;20026;-75
2021/05/09 04:19:08;;;;;;;0.90;0.90;;;11.10;68.10;;;;;;5090555;28;20028;-76
2021/05/09 04:21:34;;;;;;;1.52;0.70;;;11.20;68.10;;;;;;5090316;28;20523;-75
2021/05/09 04:24:00;;;;;;;0.77;0.77;;;11.20;68.00;;;;;;5090153;28;20053;-75
2021/05/09 04:26:26;;;;;;;1.50;1.08;;;11.10;68.10;;;;;;5091653;28;20059;-75
2021/05/09 04:28:52;;;;;;;1.80;0.80;;;11.00;68.40;;;;;;5091715;28;20021;-76
2021/05/09 04:31:18;;;;;;;1.27;0.80;;;11.10;68.70;;;;;;5090417;28;20115;-76
2021/05/09 04:33:43;;;;;;;1.63;1.23;;;11.10;68.90;;;;;;5091674;28;20020;-76
2021/05/09 04:36:09;;;;;;;1.20;0.90;;;11.30;68.70;;;;;;5091483;28;20028;-75
2021/05/09 04:38:35;;;;;;;2.38;1.10;;;11.40;68.50;;;;;;5091675;28;20020;-75
2021/05/09 04:41:01;;;;;;;0.80;0.77;;;11.50;68.80;;;;;;5091943;28;20024;-75
2021/05/09 04:43:27;;;;;;;0.70;0.70;;;11.50;69.00;;;;;;5091580;28;20103;-75
2021/05/09 04:45:55;;;;;;;2.67;1.13;;;11.60;68.40;;;;;;5091487;28;20081;-76
2021/05/09 04:48:22;;;;;;;0.93;0.90;;;11.70;68.30;;;;;;5092607;28;20020;-75
2021/05/09 04:50:48;;;;;;;0.90;0.85;;;11.80;68.50;;;;;;5076817;28;20025;-75
2021/05/09 04:53:27;;;;;;;0.90;0.80;;;11.90;68.20;;;;;;5095115;28;20027;-75
2021/05/09 04:55:54;;;;;;;8.13;1.25;;;12.00;68.10;;;;;;5093602;28;20162;-76
2021/05/09 04:58:20;;;;;;;2.72;0.70;;;12.00;67.70;;;;;;5095081;28;20020;-76
2021/05/09 05:00:49;;;;;;;1.15;0.80;;;12.10;67.70;;;;;;5094868;28;20032;-76
2021/05/09 05:03:16;;;;;;;4.47;0.68;;;12.20;67.60;;;;;;5093622;28;20075;-76
2021/05/09 05:05:41;;;;;;;1.67;0.88;;;12.30;67.30;;;;;;5094523;28;20027;-76
2021/05/09 05:08:07;;;;;;;1.83;0.80;;;12.40;67.40;;;;;;5094772;28;20028;-75
2021/05/09 05:10:33;;;;;;;2.25;0.98;;;12.50;66.90;;;;;;5094798;28;20413;-76
2021/05/09 05:12:58;;;;;;;1.75;1.00;;;12.60;66.70;;;;;;5094503;28;20107;-76
2021/05/09 05:15:24;;;;;;;1.23;0.85;;;12.70;66.70;;;;;;5094682;28;20486;-76
2021/05/09 05:17:50;;;;;;;1.52;0.80;;;12.80;66.20;;;;;;5094430;28;20118;-75
2021/05/09 05:20:16;;;;;;;0.90;0.70;;;12.90;65.30;;;;;;5094482;28;20020;-76
2021/05/09 05:22:41;;;;;;;2.60;0.80;;;13.10;65.20;;;;;;5094569;28;20053;-75
2021/05/09 05:25:08;;;;;;;1.30;0.95;;;13.20;63.40;;;;;;5093113;28;20028;-75
2021/05/09 05:27:33;;;;;;;1.15;0.80;;;13.30;63.60;;;;;;5094326;28;20031;-75
2021/05/09 05:29:59;;;;;;;1.58;0.80;;;13.40;63.30;;;;;;5093062;28;20131;-75
2021/05/09 05:32:25;;;;;;;1.23;0.80;;;13.50;63.20;;;;;;5094244;28;20053;-75
2021/05/09 05:34:50;;;;;;;0.95;0.80;;;13.60;63.30;;;;;;5094287;28;20027;-76
2021/05/09 05:37:16;;;;;;;3.42;1.00;;;13.70;62.80;;;;;;5094178;28;20028;-75
2021/05/09 05:39:42;;;;;;;2.05;0.95;;;13.90;63.00;;;;;;5076221;28;20027;-76
2021/05/09 05:42:08;;;;;;;1.35;0.90;;;14.00;61.60;;;;;;5094240;28;20016;-76
2021/05/09 05:44:33;;;;;;;0.98;0.88;;;14.10;61.50;;;;;;5094543;28;20371;-75
2021/05/09 05:46:59;;;;;;;0.77;0.77;;;14.20;61.70;;;;;;5092497;28;20016;-75
2021/05/09 05:49:25;;;;;;;2.38;1.27;;;14.30;61.60;;;;;;5075865;28;20027;-75
2021/05/09 05:51:51;;;;;;;0.70;0.70;;;14.40;61.80;;;;;;5092777;28;20028;-75
2021/05/09 05:54:16;;;;;;;2.67;0.93;;;14.50;61.00;;;;;;5093861;28;20049;-75
2021/05/09 05:56:42;;;;;;;2.35;1.15;;;14.70;61.00;;;;;;5092520;28;20443;-75
2021/05/09 05:59:08;;;;;;;2.88;0.70;;;14.80;61.30;;;;;;5075631;28;20106;-75
2021/05/09 06:01:34;;;;;;;1.30;0.80;;;14.90;61.40;;;;;;5092466;28;20031;-76
2021/05/09 06:04:00;;;;;;;0.90;0.57;;;15.00;61.10;;;;;;5093604;28;20103;-76
2021/05/09 06:06:25;;;;;;;1.25;1.02;;;15.10;60.60;;;;;;5075374;28;20055;-75
2021/05/09 06:08:53;;;;;;;2.90;0.82;;;15.20;61.10;;;;;;5093599;28;20059;-76
2021/05/09 06:11:19;;;;;;;1.90;0.90;;;15.30;61.00;;;;;;5092596;28;20028;-76
2021/05/09 06:13:44;;;;;;;1.77;0.75;;;15.40;60.70;;;;;;5091907;28;20028;-76
2021/05/09 06:16:10;;;;;;;4.53;1.38;;;15.50;60.20;;;;;;5091961;28;20035;-76
2021/05/09 06:18:36;;;;;;;1.33;0.85;;;15.70;61.30;;;;;;5092107;28;20035;-76
2021/05/09 06:21:02;;;;;;;3.10;0.70;;;15.70;60.00;;;;;;5075197;28;20030;-76
2021/05/09 06:23:28;;;;;;;1.67;1.25;;;15.80;59.20;;;;;;5092765;28;20023;-76
2021/05/09 06:25:54;;;;;;;1.73;0.80;;;16.00;58.20;;;;;;5080102;28;20032;-76
2021/05/09 06:28:21;;;;;;;1.65;0.88;;;16.00;58.70;;;;;;5068845;28;20025;-76
2021/05/09 06:30:48;;;;;;;1.88;0.75;;;16.10;58.60;;;;;;5071825;28;20029;-76
2021/05/09 06:33:14;;;;;;;1.83;1.10;;;16.20;58.70;;;;;;5084045;28;20024;-76
2021/05/09 06:35:41;;;;;;;1.20;0.65;;;16.20;58.40;;;;;;5093005;28;20032;-76
2021/05/09 06:38:07;;;;;;;1.27;0.70;;;16.30;58.20;;;;;;5074836;28;20034;-76
2021/05/09 06:40:34;;;;;;;2.63;1.10;;;16.50;58.10;;;;;;5091422;28;20024;-76
2021/05/09 06:43:02;;;;;;;0.57;0.57;;;16.60;58.10;;;;;;5072698;28;20025;-76
2021/05/09 06:45:31;;;;;;;2.42;0.80;;;16.80;58.00;;;;;;5071443;28;20380;-76
2021/05/09 06:47:58;;;;;;;2.33;0.80;;;16.90;57.10;;;;;;5055270;28;20081;-77
2021/05/09 06:50:26;;;;;;;1.48;0.60;;;17.10;56.80;;;;;;5071246;28;20059;-76
2021/05/09 06:52:52;;;;;;;4.22;1.00;;;17.30;55.70;;;;;;5071179;28;20526;-76
2021/05/09 06:55:19;;;;;;;0.50;0.50;;;17.50;55.90;;;;;;5071242;28;20028;-75
2021/05/09 06:57:47;;;;;;;2.83;0.80;;;17.60;55.60;;;;;;5074603;28;20016;-76
2021/05/09 07:00:14;;;;;;;1.70;0.80;;;17.60;55.00;;;;;;5092541;28;20074;-76
2021/05/09 07:02:41;;;;;;;0.93;0.88;;;17.70;54.60;;;;;;5092445;28;20032;-76
2021/05/09 07:05:07;;;;;;;0.80;0.80;;;17.90;53.90;;;;;;5092582;28;20064;-76
2021/05/09 07:07:48;;;;;;;0.82;0.55;;;18.10;53.20;;;;;;5092348;28;20016;-77
2021/05/09 07:10:14;;;;;;;1.38;0.68;;;18.20;52.80;;;;;;5090820;28;20101;-77
2021/05/09 07:12:39;;;;;;;1.40;0.70;;;18.50;52.60;;;;;;5092427;28;20103;-76
2021/05/09 07:15:06;;;;;;;4.07;1.00;;;18.50;52.10;;;;;;5092219;28;20016;-77
2021/05/09 07:17:31;;;;;;;1.27;0.50;;;18.70;51.60;;;;;;5090645;28;20028;-76
2021/05/09 07:19:57;;;;;;;1.40;0.90;;;18.80;50.40;;;;;;5090919;28;20097;-76
2021/05/09 07:22:30;;;;;;;3.38;1.30;;;18.90;50.20;;;;;;5074260;28;20035;-76
2021/05/09 07:24:56;;;;;;;3.22;0.95;;;19.00;50.70;;;;;;5091804;28;20020;-76
2021/05/09 07:27:22;;;;;;;2.00;0.90;;;19.20;51.00;;;;;;5090695;28;20494;-76
2021/05/09 07:29:48;;;;;;;3.70;0.70;;;19.30;50.40;;;;;;5091229;28;20039;-77
2021/05/09 07:32:13;;;;;;;1.38;0.70;;;19.40;49.20;;;;;;5090749;28;20495;-75
2021/05/09 07:34:39;;;;;;;0.80;0.80;;;19.50;50.00;;;;;;5090947;28;20299;-77
2021/05/09 07:37:05;;;;;;;2.40;1.50;;;19.60;49.80;;;;;;5091859;28;20109;-77
2021/05/09 07:39:30;;;;;;;1.80;1.40;;;19.80;50.70;;;;;;5091750;28;20028;-77
2021/05/09 07:41:56;;;;;;;1.75;1.08;;;20.10;50.40;;;;;;5092092;28;20479;-77
2021/05/09 07:44:22;;;;;;;3.17;1.50;;;20.30;49.20;;;;;;5091986;28;20458;-77
2021/05/09 07:46:47;;;;;;;0.57;0.57;;;20.40;49.40;;;;;;5090475;28;20020;-77
2021/05/09 07:49:13;;;;;;;3.72;1.23;;;20.70;48.70;;;;;;5090620;28;20030;-77
2021/05/09 07:51:39;;;;;;;1.88;0.90;;;20.90;49.00;;;;;;5090569;28;20391;-78
2021/05/09 07:54:05;;;;;;;3.05;0.65;;;21.00;48.20;;;;;;5090456;28;20020;-77
2021/05/09 07:56:32;;;;;;;0.80;0.70;;;21.20;47.20;;;;;;5091995;28;20035;-77
2021/05/09 07:58:58;;;;;;;5.15;1.10;;;21.40;47.30;;;;;;5091910;28;20455;-78
2021/05/09 08:01:24;;;;;;;0.68;0.68;;;21.60;47.60;;;;;;5073730;28;20055;-76
2021/05/09 08:03:49;;;;;;;0.70;0.63;;;21.90;47.30;;;;;;5091941;28;20323;-76
2021/05/09 08:06:15;;;;;;;1.58;0.80;;;22.20;47.30;;;;;;5091832;28;20024;-76
2021/05/09 08:08:41;;;;;;;1.08;0.95;;;22.20;47.00;;;;;;5090602;28;20486;-76
2021/05/09 08:11:06;;;;;;;1.33;0.85;;;22.30;47.40;;;;;;5091827;28;20024;-77
2021/05/09 08:13:32;;;;;;;1.23;0.70;;;22.40;44.00;;;;;;5091763;28;20028;-76
2021/05/09 08:15:58;;;;;;;2.78;0.73;;;22.70;44.30;;;;;;5092218;28;20032;-77
2021/05/09 08:18:25;;;;;;;1.80;0.95;;;22.80;43.90;;;;;;5091636;28;20051;-77
2021/05/09 08:20:56;;;;;;;1.48;0.82;;;23.00;42.90;;;;;;5073481;28;20115;-77
2021/05/09 08:23:22;;;;;;;3.10;0.80;;;23.10;43.50;;;;;;5093268;28;20031;-77
2021/05/09 08:25:48;;;;;;;4.45;1.50;;;23.40;43.50;;;;;;5095434;28;20028;-77
2021/05/09 08:28:14;;;;;;;1.58;0.65;;;23.80;43.50;;;;;;5094228;28;20020;-77
2021/05/09 08:30:40;;;;;;;1.38;0.70;;;24.10;42.60;;;;;;5094139;28;20031;-74
2021/05/09 08:33:06;;;;;;;1.02;0.75;;;24.30;40.70;;;;;;5095454;28;20395;-74
2021/05/09 08:35:32;;;;;;;2.17;1.70;;;24.60;34.70;;;;;;5095408;28;20098;-74
2021/05/09 08:37:57;;;;;;;2.83;1.42;;;24.80;33.60;;;;;;5095121;28;20036;-74
2021/05/09 08:40:23;;;;;;;0.38;0.32;;;24.90;33.30;;;;;;5076941;28;20028;-74
2021/05/09 08:42:50;;;;;;;4.10;0.90;;;25.10;31.10;;;;;;5093940;28;20499;-74
2021/05/09 08:45:19;;;;;;;1.90;1.25;;;25.10;30.70;;;;;;5095024;28;20024;-74
2021/05/09 08:47:45;;;;;;;3.50;0.40;;;25.50;31.70;;;;;;5093799;28;20020;-74
2021/05/09 08:50:17;;;;;;;2.20;1.17;;;25.60;30.70;;;;;;5093451;28;20078;-74
2021/05/09 08:52:44;;;;;;;1.17;0.80;;;25.90;31.90;;;;;;5094981;28;20103;-74
2021/05/09 08:55:13;;;;;;;1.85;0.88;;;25.90;32.40;;;;;;5093717;28;20103;-74
2021/05/09 08:57:41;;;;;;;1.15;0.55;;;26.00;30.40;;;;;;5093372;28;20024;-74
2021/05/09 09:00:09;;;;;;;1.95;0.68;;;26.00;31.00;;;;;;5093427;28;20123;-74
2021/05/09 09:02:35;;;;;;;1.77;0.70;;;26.20;31.70;;;;;;5095068;28;20028;-74
2021/05/09 09:05:01;;;;;;;2.25;0.93;;;26.10;28.90;;;;;;5094707;28;20028;-74
2021/05/09 09:07:46;;;;;;;1.60;0.70;;;26.10;29.00;;;;;;5089608;28;20020;-76
2021/05/09 09:10:36;;;;;;;2.72;1.08;;;26.30;28.90;;;;;;5076375;28;20443;-76
2021/05/09 09:13:03;;;;;;;1.10;0.68;;;26.40;27.10;;;;;;5093335;28;20020;-77
2021/05/09 09:15:49;;;;;;;42.22;25.30;;;26.50;28.00;;;;;;5093455;28;20051;-75
2021/05/09 09:18:33;;;;;;;1.33;1.20;;;26.50;29.60;;;;;;5092905;28;20040;-76
2021/05/09 09:21:20;;;;;;;3.08;0.93;;;26.30;31.10;;;;;;5093173;28;20028;-73
2021/05/09 09:23:49;;;;;;;1.80;1.23;;;26.20;32.20;;;;;;5094405;28;20067;-73
2021/05/09 09:26:24;;;;;;;3.22;0.60;;;26.30;31.40;;;;;;5092708;28;20516;-74
2021/05/09 09:28:50;;;;;;;1.75;1.33;;;26.40;31.80;;;;;;5092791;28;20020;-74
2021/05/09 09:31:15;;;;;;;1.67;1.10;;;26.70;30.70;;;;;;5094007;28;20543;-73
2021/05/09 09:33:50;;;;;;;4.97;2.63;;;27.00;32.40;;;;;;5092624;28;20376;-73
2021/05/09 09:36:19;;;;;;;2.38;1.30;;;27.20;31.60;;;;;;5093962;28;20058;-74
2021/05/09 09:38:51;;;;;;;3.53;0.68;;;27.40;30.90;;;;;;5094066;28;20024;-74
2021/05/09 09:41:19;;;;;;;;;;;27.30;30.70;;;;;;5094072;28;20035;-73
2021/05/09 09:44:05;;;;;;;1.08;0.68;;;27.40;30.50;;;;;;5092763;28;19915;-73
2021/05/09 09:46:39;;;;;;;1.17;0.80;;;27.50;29.90;;;;;;5093858;28;20044;-74
2021/05/09 09:49:22;;;;;;;1.23;1.13;;;27.80;30.40;;;;;;5092478;28;20387;-74
2021/05/09 09:51:51;;;;;;;0.77;0.63;;;27.80;31.00;;;;;;5093843;28;20024;-73
2021/05/09 09:54:43;;;;;;;0.98;0.70;;;28.00;29.10;;;;;;5093787;28;20024;-73
2021/05/09 09:57:10;;;;;;;3.33;0.80;;;28.30;30.10;;;;;;5092210;28;20054;-74
2021/05/09 09:59:36;;;;;;;3.40;1.83;;;28.50;30.70;;;;;;5093683;28;20422;-74
2021/05/09 10:02:03;;;;;;;1.10;0.70;;;28.30;28.90;;;;;;5093836;28;20021;-74
2021/05/09 10:04:29;;;;;;;1.15;0.80;;;28.30;29.10;;;;;;5093442;28;20070;-74
2021/05/09 10:06:55;;;;;;;2.63;1.45;;;28.40;29.20;;;;;;5092147;28;20048;-74
2021/05/09 10:09:21;;;;;;;0.98;0.77;;;28.60;27.50;;;;;;5092227;28;20034;-74
2021/05/09 10:11:46;;;;;;;3.08;0.70;;;28.60;28.00;;;;;;5093525;28;20024;-74
2021/05/09 10:14:13;;;;;;;0.68;0.55;;;28.50;26.90;;;;;;5093292;28;20024;-73
2021/05/09 10:16:48;;;;;;;5.55;1.08;;;28.40;26.80;;;;;;5091980;28;20396;-74
2021/05/09 10:19:20;;;;;;;3.47;1.55;;;28.50;27.20;;;;;;5093227;28;20380;-74
2021/05/09 10:21:46;;;;;;;1.45;0.50;;;28.50;25.50;;;;;;5093280;28;20028;-74
2021/05/09 10:24:12;;;;;;;1.52;1.05;;;28.50;25.80;;;;;;5091836;28;20153;-74
2021/05/09 10:27:04;;;;;;;0.88;0.80;;;28.60;25.70;;;;;;5066648;28;20119;-74
2021/05/09 10:29:32;;;;;;;;;;;28.80;25.20;;;;;;5072922;28;20017;-74
2021/05/09 10:32:18;;;;;;;1.10;0.60;;;28.60;25.10;;;;;;5073396;28;19910;-74
2021/05/09 10:37:51;;;;;;;8.02;0.70;;;28.90;25.60;;;;;;5071180;28;20025;-74
2021/05/09 10:40:23;;;;;;;3.70;0.52;;;29.00;25.50;;;;;;5027732;28;20079;-74
2021/05/09 10:43:08;;;;;;;1.80;0.85;;;28.90;26.10;;;;;;5082307;28;20016;-74
2021/05/09 10:45:34;;;;;;;3.00;0.60;;;28.90;26.50;;;;;;5090558;28;20020;-74
2021/05/09 10:51:02;;;;;;;0.95;0.70;;;28.80;26.00;;;;;;5092890;28;20356;-74
2021/05/09 10:53:37;;;;;;;2.58;0.93;;;28.90;25.90;;;;;;5092675;28;20494;-73
2021/05/09 10:56:07;;;;;;;1.15;1.05;;;29.10;26.70;;;;;;5091355;28;20036;-73
2021/05/09 10:58:48;;;;;;;1.05;0.95;;;29.50;26.60;;;;;;5092676;28;20462;-74
2021/05/09 11:01:19;;;;;;;1.40;0.77;;;29.40;26.70;;;;;;5074249;28;20119;-73
2021/05/09 11:03:46;;;;;;;3.22;0.57;;;29.20;27.10;;;;;;5092664;28;20031;-73
2021/05/09 11:06:21;;;;;;;3.85;0.73;;;29.30;27.50;;;;;;5092490;28;20491;-74
2021/05/09 11:08:52;;;;;;;1.02;0.70;;;29.40;27.80;;;;;;5091562;28;20031;-74
2021/05/09 11:11:24;;;;;;;1.98;0.75;;;29.50;28.50;;;;;;5074355;28;20483;-74
2021/05/09 11:16:24;;;;;;;1.95;0.82;;;29.80;28.70;;;;;;5092236;28;20024;-74
2021/05/09 11:19:06;;;;;;;0.82;0.80;;;30.00;28.90;;;;;;5090883;28;20031;-73
2021/05/09 11:21:33;;;;;;;1.13;0.90;;;29.90;28.60;;;;;;5092157;28;20134;-73
2021/05/09 11:24:02;;;;;;;0.80;0.80;;;29.90;28.90;;;;;;5092054;28;20587;-74
2021/05/09 11:26:30;;;;;;;1.30;0.80;;;30.00;29.20;;;;;;5092027;28;20059;-74
2021/05/09 11:29:09;;;;;;;2.50;0.60;;;29.90;28.70;;;;;;5092099;28;20092;-74
2021/05/09 11:31:41;;;;;;;0.60;0.60;;;29.60;28.60;;;;;;5090967;28;20020;-74
2021/05/09 11:34:07;;;;;;;4.20;0.70;;;29.90;28.70;;;;;;5092341;28;20306;-74
2021/05/09 11:36:35;;;;;;;1.73;0.80;;;29.80;28.90;;;;;;5091915;28;20029;-73
2021/05/09 11:39:11;;;;;;;1.08;0.60;;;29.60;28.60;;;;;;5092016;28;20039;-73
2021/05/09 11:41:51;;;;;;;0.88;0.50;;;29.60;28.70;;;;;;5091891;28;20024;-74
2021/05/09 11:44:18;;;;;;;1.38;0.63;;;29.50;28.90;;;;;;5090625;28;20020;-74
2021/05/09 11:46:44;;;;;;;0.70;0.70;;;29.30;28.70;;;;;;5090540;28;20024;-74
2021/05/09 11:49:30;;;;;;;1.20;0.60;;;29.10;29.20;;;;;;5091081;28;20383;-73
2021/05/09 11:52:00;;;;;;;0.63;0.60;;;29.00;29.40;;;;;;5092058;28;20032;-73
2021/05/09 11:54:28;;;;;;;2.10;0.77;;;28.60;30.40;;;;;;5073785;28;20024;-73
2021/05/09 11:57:01;;;;;;;1.00;0.55;;;28.70;30.30;;;;;;5092806;28;20050;-73
2021/05/09 11:59:41;;;;;;;2.50;0.60;;;28.60;30.30;;;;;;5094560;28;20050;-73
2021/05/09 12:02:16;;;;;;;1.65;1.00;;;28.50;30.60;;;;;;5094728;28;20020;-74
2021/05/09 12:05:00;;;;;;;1.67;1.00;;;28.60;31.00;;;;;;5094973;28;20487;-73
2021/05/09 12:07:30;;;;;;;1.77;0.73;;;28.30;30.40;;;;;;5094486;28;20472;-73
2021/05/09 12:10:01;;;;;;;1.27;0.70;;;28.40;29.40;;;;;;5095860;28;20031;-74
2021/05/09 12:12:30;;;;;;;1.92;0.95;;;28.10;29.40;;;;;;5095912;28;20030;-73
2021/05/09 12:15:15;;;;;;;1.05;0.85;;;27.80;30.00;;;;;;5095891;28;20042;-74
2021/05/09 12:17:59;;;;;;;1.65;0.57;;;27.80;29.40;;;;;;5095577;28;20027;-73
2021/05/09 12:20:31;;;;;;;1.40;0.93;;;27.60;29.50;;;;;;5095201;28;20020;-73
2021/05/09 12:23:00;;;;;;;;;;;27.40;29.80;;;;;;5096047;28;20028;-74
2021/05/09 12:25:42;;;;;;;0.65;0.63;;;27.60;30.40;;;;;;5094195;28;19918;-73
2021/05/09 12:28:12;;;;;;;1.05;0.80;;;27.50;30.40;;;;;;5095563;28;20051;-73
2021/05/09 12:30:38;;;;;;;6.72;0.73;;;27.40;30.10;;;;;;5095376;28;20024;-73
2021/05/09 12:33:05;;;;;;;0.73;0.70;;;27.30;31.30;;;;;;5095325;28;20487;-73
2021/05/09 12:35:45;;;;;;;2.20;0.70;;;27.40;30.70;;;;;;5095522;28;20031;-74
2021/05/09 12:38:10;;;;;;;1.05;0.90;;;27.50;30.80;;;;;;5095347;28;20042;-73
2021/05/09 12:40:38;;;;;;;1.23;0.90;;;27.50;31.30;;;;;;5095172;28;20024;-74
2021/05/09 12:43:10;;;;;;;1.55;0.77;;;27.50;31.20;;;;;;5094002;28;20017;-74
2021/05/09 12:45:45;;;;;;;2.53;0.90;;;27.30;30.90;;;;;;5095053;28;20535;-74
2021/05/09 12:48:10;;;;;;;1.15;0.70;;;27.20;31.00;;;;;;5093978;28;20429;-74
2021/05/09 12:50:54;;;;;;;1.08;0.85;;;27.20;32.00;;;;;;5093796;28;20020;-73
2021/05/09 12:53:35;;;;;;;2.40;0.95;;;27.00;30.90;;;;;;5095111;28;20036;-74
2021/05/09 12:56:20;;;;;;;1.20;0.90;;;27.00;30.90;;;;;;5094803;28;20032;-74
2021/05/09 12:59:10;;;;;;;1.60;0.93;;;27.10;31.40;;;;;;5093488;28;20066;-73
2021/05/09 13:01:41;;;;;;;1.38;0.60;;;27.00;31.60;;;;;;5093704;28;20110;-73
2021/05/09 13:04:25;;;;;;;6.13;0.93;;;26.80;32.20;;;;;;5093651;28;20044;-73
2021/05/09 13:06:51;;;;;;;5.88;1.20;;;26.80;32.20;;;;;;5093478;28;20078;-74
2021/05/09 13:09:17;;;;;;;3.63;0.85;;;26.80;32.20;;;;;;5092834;28;20032;-73
2021/05/09 13:11:42;;;;;;;0.70;0.70;;;26.80;32.40;;;;;;5076778;28;20441;-73
2021/05/09 13:14:08;;;;;;;3.45;1.00;;;26.80;32.20;;;;;;5093571;28;20093;-73
2021/05/09 13:16:34;;;;;;;2.83;0.90;;;26.70;32.40;;;;;;5093378;28;20031;-73
2021/05/09 13:18:59;;;;;;;3.60;1.38;;;26.60;32.80;;;;;;5094409;28;20098;-73